createdAt,value
2019-04-21T00:03:45.992Z,3.60
2019-04-21T00:14:26.019Z,3.60
2019-04-21T00:19:24.595Z,3.59
2019-04-21T00:24:48.649Z,3.59
2019-04-21T00:30:26.699Z,3.58
2019-04-21T00:39:55.562Z,3.59
2019-04-21T00:44:57.579Z,3.59
2019-04-21T00:56:21.085Z,3.58
2019-04-21T01:02:54.900Z,3.59
2019-04-21T01:11:17.714Z,3.59
2019-04-21T01:16:38.809Z,3.58
2019-04-21T01:21:58.978Z,3.59
2019-04-21T01:26:17.629Z,3.58
2019-04-21T01:31:35.937Z,3.59
2019-04-21T01:37:10.004Z,3.59
2019-04-21T01:42:45.044Z,3.59
2019-04-21T01:52:17.439Z,3.58
2019-04-21T02:09:18.731Z,3.57
2019-04-21T02:15:04.364Z,3.58
2019-04-21T02:22:27.076Z,3.57
2019-04-21T02:39:37.092Z,3.56
2019-04-21T02:45:07.985Z,3.57
2019-04-21T03:02:40.473Z,3.57
2019-04-21T03:08:25.105Z,3.57
2019-04-21T03:13:46.354Z,3.56
2019-04-21T03:23:07.496Z,3.56
2019-04-21T03:34:38.068Z,3.57
2019-04-21T03:39:44.727Z,3.56
2019-04-21T03:51:02.504Z,3.56
2019-04-21T03:57:55.219Z,3.57
2019-04-21T04:02:54.315Z,3.56
2019-04-21T04:11:02.442Z,3.56
2019-04-21T04:16:54.087Z,3.56
2019-04-21T04:22:29.324Z,3.56
2019-04-21T04:33:36.963Z,3.56
2019-04-21T04:39:13.851Z,3.56
2019-04-21T04:50:38.942Z,3.56
2019-04-21T04:56:03.469Z,3.56
2019-04-21T05:01:40.273Z,3.56
2019-04-21T05:07:31.713Z,3.56
2019-04-21T05:12:50.479Z,3.56
2019-04-21T05:24:43.833Z,3.56
2019-04-21T05:30:54.968Z,3.56
2019-04-21T05:36:43.983Z,3.56
2019-04-21T05:42:28.265Z,3.56
2019-04-21T05:48:16.939Z,3.56
2019-04-21T05:54:06.436Z,3.56
2019-04-21T06:00:08.632Z,3.56
2019-04-21T06:07:45.937Z,3.56
2019-04-21T06:13:18.535Z,3.56
2019-04-21T06:19:20.563Z,3.56
2019-04-21T06:25:30.737Z,3.56
2019-04-21T06:30:38.894Z,3.56
2019-04-21T06:37:21.223Z,3.56
2019-04-21T06:42:40.002Z,3.56
2019-04-21T06:48:17.935Z,3.56
2019-04-21T06:54:03.219Z,3.56
2019-04-21T07:00:24.567Z,3.56
2019-04-21T07:06:47.844Z,3.56
2019-04-21T07:12:18.190Z,3.56
2019-04-21T07:17:49.741Z,3.56
2019-04-21T07:23:36.682Z,3.56
2019-04-21T07:29:07.483Z,3.56
2019-04-21T07:34:50.957Z,3.56
2019-04-21T07:40:18.879Z,3.56
2019-04-21T07:45:57.961Z,3.56
2019-04-21T07:51:37.503Z,3.55
2019-04-21T08:06:20.336Z,3.56
2019-04-21T08:11:47.437Z,3.56
2019-04-21T08:17:23.250Z,3.56
2019-04-21T08:23:53.991Z,3.56
2019-04-21T08:29:45.827Z,3.55
2019-04-21T08:35:39.795Z,3.56
2019-04-21T08:40:55.679Z,3.55
2019-04-21T08:46:30.882Z,3.56
2019-04-21T08:52:59.619Z,3.56
2019-04-21T08:58:33.859Z,3.55
2019-04-21T09:04:45.668Z,3.56
2019-04-21T09:12:14.547Z,3.56
2019-04-21T09:17:36.412Z,3.55
2019-04-21T09:25:01.136Z,3.56
2019-04-21T09:30:05.387Z,3.56
2019-04-21T09:34:24.748Z,3.56
2019-04-21T09:39:05.395Z,3.56
2019-04-21T09:43:39.878Z,3.56
2019-04-21T09:48:16.769Z,3.56
2019-04-21T09:52:57.636Z,3.56
2019-04-21T09:57:46.427Z,3.56
2019-04-21T10:02:42.208Z,3.56
2019-04-21T10:07:31.475Z,3.56
2019-04-21T10:11:46.154Z,3.56
2019-04-21T10:15:54.241Z,3.56
2019-04-21T10:21:07.943Z,3.56
2019-04-21T11:04:23.472Z,3.55
2019-04-21T11:47:48.356Z,3.55
2019-04-21T11:52:25.077Z,3.55
2019-04-21T11:56:43.070Z,3.54
2019-04-21T12:01:05.629Z,3.55
2019-04-21T12:44:14.895Z,3.54
2019-04-21T13:27:36.672Z,3.53
2019-04-21T13:31:40.367Z,3.52
2019-04-21T13:35:55.118Z,3.54
2019-04-21T13:40:33.958Z,3.53
2019-04-21T14:24:56.614Z,3.52
2019-04-21T14:29:11.346Z,3.52
2019-04-21T14:33:25.692Z,3.52
2019-04-21T14:37:35.836Z,3.53
2019-04-21T14:46:00.952Z,3.53
2019-04-21T15:23:10.337Z,3.51
2019-04-21T15:27:12.750Z,3.51
2019-04-21T15:35:15.275Z,3.51
2019-04-21T15:41:14.566Z,3.51
2019-04-21T15:49:13.210Z,3.51
2019-04-21T15:53:15.929Z,3.52
2019-04-21T15:57:33.831Z,3.51
2019-04-21T16:04:14.878Z,3.51
2019-04-21T16:08:20.403Z,3.51
2019-04-21T16:16:20.373Z,3.51
2019-04-21T16:20:32.314Z,3.51
2019-04-21T16:24:46.009Z,3.52
2019-04-21T16:28:59.334Z,3.51
2019-04-21T16:33:08.042Z,3.52
2019-04-21T16:37:19.317Z,3.52
2019-04-21T16:41:32.294Z,3.51
2019-04-21T16:45:41.094Z,3.53
2019-04-21T16:49:49.832Z,3.51
2019-04-21T16:53:59.725Z,3.52
2019-04-21T17:10:16.945Z,3.51
2019-04-21T17:53:34.571Z,3.49
2019-04-21T17:58:56.562Z,3.50
2019-04-21T18:04:30.315Z,3.49
2019-04-21T18:10:15.460Z,3.50
2019-04-21T18:54:35.543Z,3.45
2019-04-21T18:59:48.821Z,3.47
2019-04-21T19:03:56.470Z,3.45
2019-04-21T19:08:46.303Z,3.46
2019-04-21T19:24:01.127Z,3.47
2019-04-21T19:29:23.805Z,3.45
2019-04-21T21:22:03.782Z,3.39
2019-04-21T21:27:31.788Z,3.39
2019-04-21T21:38:54.396Z,3.39
2019-04-21T21:44:05.616Z,3.39
2019-04-21T21:48:49.919Z,3.39
2019-04-21T22:13:46.395Z,3.38
2019-04-21T22:30:24.576Z,3.38
2019-04-21T22:34:51.303Z,3.37
2019-04-21T22:43:21.518Z,3.37
2019-04-21T22:47:47.987Z,3.36
2019-04-21T22:52:15.500Z,3.36
2019-04-21T22:57:01.501Z,3.36
2019-04-21T23:02:53.845Z,3.35
2019-04-21T23:07:32.749Z,3.36
2019-04-21T23:12:20.297Z,3.35
2019-04-21T23:23:04.805Z,3.35
2019-04-21T23:28:20.730Z,3.34
2019-04-21T23:34:10.743Z,3.33
2019-04-21T23:40:47.375Z,3.33
2019-04-21T23:52:59.089Z,3.33
2019-04-21T23:57:02.728Z,3.32
